Terminal Aerodrome Forecast
Issued by NWS

Home | Current Version | Previous Version | Text Only | Print | Product List | Glossary On
Versions: 1 2 3 4 5 6 7 8 9 10 11 12 13 14 15 16
000
FTUS45 KABQ 031740
TAFLVS
TAF
KLVS 031740Z 0318/0418 17009KT P6SM VCSH SCT060 BKN100
      TEMPO 0321/0324 VRB15G25KT 6SM -TSRA SCT030 BKN060CB
     FM040000 17009KT P6SM VCSH BKN080
     FM040500 20011KT P6SM BKN090=

USA.gov is the U.S. government's official web portal to all federal, state and local government web resources and services.